Aviation Digital Data Service (ADDS)

Output produced by METARs form (1521 UTC 23 January 2019)
found at http://www.aviationweather.gov/metar/data/
 
METAR text: EHBK 231455Z AUTO 06010KT 7000 SCT037 M01/M04 Q1000 R03/2///95 TEMPO BKN015
Conditions at: EHBK (ZUID-LIMBURG/BEE, NL) observed 1455 UTC 23 January 2019
Temperature: -1.0°C (30°F)
Dewpoint: -4.0°C (25°F) [RH = 80%]
Pressure (altimeter): 29.53 inches Hg (1000.0 mb)
Winds: from the ENE (60 degrees) at 12 MPH (10 knots; 5.1 m/s)
Visibility: 4 miles ( 7 km)
Ceiling: at least 12,000 feet AGL
Clouds: scattered clouds at 3700 feet AGL
Weather: no significant weather observed at this time

METAR text: EHBK 231425Z AUTO 06010KT 6000 OVC034 M01/M04 Q0999 R03/2///95 TEMPO BKN012
Conditions at: EHBK (ZUID-LIMBURG/BEE, NL) observed 1425 UTC 23 January 2019
Temperature: -1.0°C (30°F)
Dewpoint: -4.0°C (25°F) [RH = 80%]
Pressure (altimeter): 29.50 inches Hg (999.0 mb)
Winds: from the ENE (60 degrees) at 12 MPH (10 knots; 5.1 m/s)
Visibility: 4 miles ( 6 km)
Ceiling: 3400 feet AGL
Clouds: overcast cloud deck at 3400 feet AGL
Weather: no significant weather observed at this time

METAR text: EHBK 231355Z AUTO 04009KT 6000 FEW013 OVC036 M01/M04 Q0999 R03/2///95 TEMPO BKN012
Conditions at: EHBK (ZUID-LIMBURG/BEE, NL) observed 1355 UTC 23 January 2019
Temperature: -1.0°C (30°F)
Dewpoint: -4.0°C (25°F) [RH = 80%]
Pressure (altimeter): 29.50 inches Hg (999.0 mb)
Winds: from the NE (40 degrees) at 10 MPH (9 knots; 4.6 m/s)
Visibility: 4 miles ( 6 km)
Ceiling: 3600 feet AGL
Clouds: few clouds at 1300 feet AGL
overcast cloud deck at 3600 feet AGL
Weather: no significant weather observed at this time

METAR text: EHBK 231325Z AUTO 05008KT 020V080 7000 OVC036 M01/M04 Q0999 R03/2///95 NOSIG
Conditions at: EHBK (ZUID-LIMBURG/BEE, NL) observed 1325 UTC 23 January 2019
Temperature: -1.0°C (30°F)
Dewpoint: -4.0°C (25°F) [RH = 80%]
Pressure (altimeter): 29.50 inches Hg (999.0 mb)
Winds: from the NE (50 degrees) at 9 MPH (8 knots; 4.1 m/s)
Visibility: 4 miles ( 7 km)
Ceiling: 3600 feet AGL
Clouds: overcast cloud deck at 3600 feet AGL
Weather: no significant weather observed at this time

METAR text: EHBK 231255Z AUTO 06009KT 7000 OVC037 M01/M04 Q0998 R03/2///95 BECMG 8000
Conditions at: EHBK (ZUID-LIMBURG/BEE, NL) observed 1255 UTC 23 January 2019
Temperature: -1.0°C (30°F)
Dewpoint: -4.0°C (25°F) [RH = 80%]
Pressure (altimeter): 29.47 inches Hg (998.0 mb)
Winds: from the ENE (60 degrees) at 10 MPH (9 knots; 4.6 m/s)
Visibility: 4 miles ( 7 km)
Ceiling: 3700 feet AGL
Clouds: overcast cloud deck at 3700 feet AGL
Weather: no significant weather observed at this time

METAR text: EHBK 231225Z AUTO 06008KT 6000 OVC034 M01/M03 Q0998 R03/2///95 BECMG 8000
Conditions at: EHBK (ZUID-LIMBURG/BEE, NL) observed 1225 UTC 23 January 2019
Temperature: -1.0°C (30°F)
Dewpoint: -3.0°C (27°F) [RH = 86%]
Pressure (altimeter): 29.47 inches Hg (998.0 mb)
Winds: from the ENE (60 degrees) at 9 MPH (8 knots; 4.1 m/s)
Visibility: 4 miles ( 6 km)
Ceiling: 3400 feet AGL
Clouds: overcast cloud deck at 3400 feet AGL
Weather: no significant weather observed at this time

METAR text: EHBK 231155Z AUTO 07008KT 7000 OVC031 M01/M03 Q0998 R03/2///95 BECMG 8000
Conditions at: EHBK (ZUID-LIMBURG/BEE, NL) observed 1155 UTC 23 January 2019
Temperature: -1.0°C (30°F)
Dewpoint: -3.0°C (27°F) [RH = 86%]
Pressure (altimeter): 29.47 inches Hg (998.0 mb)
Winds: from the ENE (70 degrees) at 9 MPH (8 knots; 4.1 m/s)
Visibility: 4 miles ( 7 km)
Ceiling: 3100 feet AGL
Clouds: overcast cloud deck at 3100 feet AGL
Weather: no significant weather observed at this time

METAR text: EHBK 231125Z AUTO 07008KT 6000 OVC030 M01/M03 Q0998 R03/2///95 BECMG 8000
Conditions at: EHBK (ZUID-LIMBURG/BEE, NL) observed 1125 UTC 23 January 2019
Temperature: -1.0°C (30°F)
Dewpoint: -3.0°C (27°F) [RH = 86%]
Pressure (altimeter): 29.47 inches Hg (998.0 mb)
Winds: from the ENE (70 degrees) at 9 MPH (8 knots; 4.1 m/s)
Visibility: 4 miles ( 6 km)
Ceiling: 3000 feet AGL
Clouds: overcast cloud deck at 3000 feet AGL
Weather: no significant weather observed at this time

METAR text: EHBK 231055Z AUTO 07007KT 6000 OVC030 M01/M03 Q0998 R03/410395 BECMG 8000
Conditions at: EHBK (ZUID-LIMBURG/BEE, NL) observed 1055 UTC 23 January 2019
Temperature: -1.0°C (30°F)
Dewpoint: -3.0°C (27°F) [RH = 86%]
Pressure (altimeter): 29.47 inches Hg (998.0 mb)
Winds: from the ENE (70 degrees) at 8 MPH (7 knots; 3.6 m/s)
Visibility: 4 miles ( 6 km)
Ceiling: 3000 feet AGL
Clouds: overcast cloud deck at 3000 feet AGL
Weather: no significant weather observed at this time

METAR text: EHBK 231025Z AUTO 07007KT 6000 OVC031 M02/M04 Q0997 R03/410395 BECMG 8000
Conditions at: EHBK (ZUID-LIMBURG/BEE, NL) observed 1025 UTC 23 January 2019
Temperature: -2.0°C (28°F)
Dewpoint: -4.0°C (25°F) [RH = 86%]
Pressure (altimeter): 29.44 inches Hg (997.0 mb)
Winds: from the ENE (70 degrees) at 8 MPH (7 knots; 3.6 m/s)
Visibility: 4 miles ( 6 km)
Ceiling: 3100 feet AGL
Clouds: overcast cloud deck at 3100 feet AGL
Weather: no significant weather observed at this time

METAR text: EHBK 230955Z AUTO 07006KT 020V100 5000 BR OVC034 M03/M04 Q0997 R03/410395 BECMG NSW
Conditions at: EHBK (ZUID-LIMBURG/BEE, NL) observed 0955 UTC 23 January 2019
Temperature: -3.0°C (27°F)
Dewpoint: -4.0°C (25°F) [RH = 93%]
Pressure (altimeter): 29.44 inches Hg (997.0 mb)
Winds: from the ENE (70 degrees) at 7 MPH (6 knots; 3.1 m/s)
Visibility: 3 miles ( 5 km)
Ceiling: 3400 feet AGL
Clouds: overcast cloud deck at 3400 feet AGL
Weather: BR  (mist)

METAR text: EHBK 230925Z AUTO 07006KT 050V110 5000 BR FEW029 BKN035 M04/M05 Q0997 R03/410395 BECMG NSW
Conditions at: EHBK (ZUID-LIMBURG/BEE, NL) observed 0925 UTC 23 January 2019
Temperature: -4.0°C (25°F)
Dewpoint: -5.0°C (23°F) [RH = 93%]
Pressure (altimeter): 29.44 inches Hg (997.0 mb)
Winds: from the ENE (70 degrees) at 7 MPH (6 knots; 3.1 m/s)
Visibility: 3 miles ( 5 km)
Ceiling: 3500 feet AGL
Clouds: few clouds at 2900 feet AGL
broken clouds at 3500 feet AGL
Weather: BR  (mist)

METAR text: EHBK 230855Z AUTO 08007KT 4900 BR NSC M04/M05 Q0997 R03/410395 BECMG 7000 NSW
Conditions at: EHBK (ZUID-LIMBURG/BEE, NL) observed 0855 UTC 23 January 2019
Temperature: -4.0°C (25°F)
Dewpoint: -5.0°C (23°F) [RH = 93%]
Pressure (altimeter): 29.44 inches Hg (997.0 mb)
Winds: from the E (80 degrees) at 8 MPH (7 knots; 3.6 m/s)
Visibility: 3 miles ( 5 km)
Ceiling: at least 12,000 feet AGL
Clouds: sky clear below 12,000 feet AGL
Weather: BR  (mist)

METAR text: EHBK 230825Z AUTO 08008KT 4400 BR NSC M05/M06 Q0997 R03/410395 BECMG 7000 NSW
Conditions at: EHBK (ZUID-LIMBURG/BEE, NL) observed 0825 UTC 23 January 2019
Temperature: -5.0°C (23°F)
Dewpoint: -6.0°C (21°F) [RH = 93%]
Pressure (altimeter): 29.44 inches Hg (997.0 mb)
Winds: from the E (80 degrees) at 9 MPH (8 knots; 4.1 m/s)
Visibility: 2.73 miles (4.39 km)
Ceiling: at least 12,000 feet AGL
Clouds: sky clear below 12,000 feet AGL
Weather: BR  (mist)

METAR text: EHBK 230755Z AUTO 09007KT 4500 BR NSC M05/M06 Q0997 R03/410395 BECMG 7000 NSW
Conditions at: EHBK (ZUID-LIMBURG/BEE, NL) observed 0755 UTC 23 January 2019
Temperature: -5.0°C (23°F)
Dewpoint: -6.0°C (21°F) [RH = 93%]
Pressure (altimeter): 29.44 inches Hg (997.0 mb)
Winds: from the E (90 degrees) at 8 MPH (7 knots; 3.6 m/s)
Visibility: 2.80 miles (4.51 km)
Ceiling: at least 12,000 feet AGL
Clouds: sky clear below 12,000 feet AGL
Weather: BR  (mist)

METAR text: EHBK 230725Z AUTO 09006KT 060V120 4700 BR NSC M05/M06 Q0996 R03/410594 BECMG 7000 NSW
Conditions at: EHBK (ZUID-LIMBURG/BEE, NL) observed 0725 UTC 23 January 2019
Temperature: -5.0°C (23°F)
Dewpoint: -6.0°C (21°F) [RH = 93%]
Pressure (altimeter): 29.41 inches Hg (996.0 mb)
Winds: from the E (90 degrees) at 7 MPH (6 knots; 3.1 m/s)
Visibility: 2.92 miles (4.70 km)
Ceiling: at least 12,000 feet AGL
Clouds: sky clear below 12,000 feet AGL
Weather: BR  (mist)

METAR text: EHBK 230655Z AUTO 09006KT 060V120 5000 BR NSC M04/M05 Q0996 R03/410594 NOSIG
Conditions at: EHBK (ZUID-LIMBURG/BEE, NL) observed 0655 UTC 23 January 2019
Temperature: -4.0°C (25°F)
Dewpoint: -5.0°C (23°F) [RH = 93%]
Pressure (altimeter): 29.41 inches Hg (996.0 mb)
Winds: from the E (90 degrees) at 7 MPH (6 knots; 3.1 m/s)
Visibility: 3 miles ( 5 km)
Ceiling: at least 12,000 feet AGL
Clouds: sky clear below 12,000 feet AGL
Weather: BR  (mist)

METAR text: EHBK 230625Z AUTO 10008KT 6000 NSC M03/M05 Q0996 R03/410594 NOSIG
Conditions at: EHBK (ZUID-LIMBURG/BEE, NL) observed 0625 UTC 23 January 2019
Temperature: -3.0°C (27°F)
Dewpoint: -5.0°C (23°F) [RH = 86%]
Pressure (altimeter): 29.41 inches Hg (996.0 mb)
Winds: from the E (100 degrees) at 9 MPH (8 knots; 4.1 m/s)
Visibility: 4 miles ( 6 km)
Ceiling: at least 12,000 feet AGL
Clouds: sky clear below 12,000 feet AGL
Weather: no significant weather observed at this time

METAR text: EHBK 230555Z AUTO 10005KT 6000 NSC M04/M05 Q0996 R03/450593 BECMG 8000
Conditions at: EHBK (ZUID-LIMBURG/BEE, NL) observed 0555 UTC 23 January 2019
Temperature: -4.0°C (25°F)
Dewpoint: -5.0°C (23°F) [RH = 93%]
Pressure (altimeter): 29.41 inches Hg (996.0 mb)
Winds: from the E (100 degrees) at 6 MPH (5 knots; 2.6 m/s)
Visibility: 4 miles ( 6 km)
Ceiling: at least 12,000 feet AGL
Clouds: sky clear below 12,000 feet AGL
Weather: no significant weather observed at this time

METAR text: EHBK 230525Z AUTO 10007KT 7000 BKN028 M03/M05 Q0996 R03/450593 BECMG 8000
Conditions at: EHBK (ZUID-LIMBURG/BEE, NL) observed 0525 UTC 23 January 2019
Temperature: -3.0°C (27°F)
Dewpoint: -5.0°C (23°F) [RH = 86%]
Pressure (altimeter): 29.41 inches Hg (996.0 mb)
Winds: from the E (100 degrees) at 8 MPH (7 knots; 3.6 m/s)
Visibility: 4 miles ( 7 km)
Ceiling: 2800 feet AGL
Clouds: broken clouds at 2800 feet AGL
Weather: no significant weather observed at this time

METAR text: EHBK 230455Z AUTO 09006KT 060V120 7000 OVC028 M03/M05 Q0996 BECMG 8000
Conditions at: EHBK (ZUID-LIMBURG/BEE, NL) observed 0455 UTC 23 January 2019
Temperature: -3.0°C (27°F)
Dewpoint: -5.0°C (23°F) [RH = 86%]
Pressure (altimeter): 29.41 inches Hg (996.0 mb)
Winds: from the E (90 degrees) at 7 MPH (6 knots; 3.1 m/s)
Visibility: 4 miles ( 7 km)
Ceiling: 2800 feet AGL
Clouds: overcast cloud deck at 2800 feet AGL
Weather: no significant weather observed at this time

METAR text: EHBK 230425Z AUTO 09006KT 7000 NSC M04/M05 Q0996
Conditions at: EHBK (ZUID-LIMBURG/BEE, NL) observed 0425 UTC 23 January 2019
Temperature: -4.0°C (25°F)
Dewpoint: -5.0°C (23°F) [RH = 93%]
Pressure (altimeter): 29.41 inches Hg (996.0 mb)
Winds: from the E (90 degrees) at 7 MPH (6 knots; 3.1 m/s)
Visibility: 4 miles ( 7 km)
Ceiling: at least 12,000 feet AGL
Clouds: sky clear below 12,000 feet AGL
Weather: no significant weather observed at this time

METAR text: EHBK 230355Z AUTO 09005KT 8000 FEW041 M04/M05 Q0997
Conditions at: EHBK (ZUID-LIMBURG/BEE, NL) observed 0355 UTC 23 January 2019
Temperature: -4.0°C (25°F)
Dewpoint: -5.0°C (23°F) [RH = 93%]
Pressure (altimeter): 29.44 inches Hg (997.0 mb)
Winds: from the E (90 degrees) at 6 MPH (5 knots; 2.6 m/s)
Visibility: 5 miles ( 8 km)
Ceiling: at least 12,000 feet AGL
Clouds: few clouds at 4100 feet AGL
Weather: no significant weather observed at this time

METAR text: EHBK 230325Z AUTO 11005KT 9000 NSC M03/M05 Q0997
Conditions at: EHBK (ZUID-LIMBURG/BEE, NL) observed 0325 UTC 23 January 2019
Temperature: -3.0°C (27°F)
Dewpoint: -5.0°C (23°F) [RH = 86%]
Pressure (altimeter): 29.44 inches Hg (997.0 mb)
Winds: from the ESE (110 degrees) at 6 MPH (5 knots; 2.6 m/s)
Visibility: 6 miles ( 9 km)
Ceiling: at least 12,000 feet AGL
Clouds: sky clear below 12,000 feet AGL
Weather: no significant weather observed at this time

METAR text: EHBK 230255Z AUTO 12008KT 9999 NSC M03/M05 Q0997
Conditions at: EHBK (ZUID-LIMBURG/BEE, NL) observed 0255 UTC 23 January 2019
Temperature: -3.0°C (27°F)
Dewpoint: -5.0°C (23°F) [RH = 86%]
Pressure (altimeter): 29.44 inches Hg (997.0 mb)
Winds: from the ESE (120 degrees) at 9 MPH (8 knots; 4.1 m/s)
Visibility: 6 or more miles (10+ km)
Ceiling: at least 12,000 feet AGL
Clouds: sky clear below 12,000 feet AGL
Weather: no significant weather observed at this time

METAR text: EHBK 230225Z AUTO 17007KT 9999 NSC M02/M04 Q0998
Conditions at: EHBK (ZUID-LIMBURG/BEE, NL) observed 0225 UTC 23 January 2019
Temperature: -2.0°C (28°F)
Dewpoint: -4.0°C (25°F) [RH = 86%]
Pressure (altimeter): 29.47 inches Hg (998.0 mb)
Winds: from the S (170 degrees) at 8 MPH (7 knots; 3.6 m/s)
Visibility: 6 or more miles (10+ km)
Ceiling: at least 12,000 feet AGL
Clouds: sky clear below 12,000 feet AGL
Weather: no significant weather observed at this time

METAR text: EHBK 230155Z AUTO 17010KT 9999 NSC M02/M04 Q0998
Conditions at: EHBK (ZUID-LIMBURG/BEE, NL) observed 0155 UTC 23 January 2019
Temperature: -2.0°C (28°F)
Dewpoint: -4.0°C (25°F) [RH = 86%]
Pressure (altimeter): 29.47 inches Hg (998.0 mb)
Winds: from the S (170 degrees) at 12 MPH (10 knots; 5.1 m/s)
Visibility: 6 or more miles (10+ km)
Ceiling: at least 12,000 feet AGL
Clouds: sky clear below 12,000 feet AGL
Weather: no significant weather observed at this time

METAR text: EHBK 230125Z AUTO 16008KT 9999 SCT026 M02/M04 Q0998
Conditions at: EHBK (ZUID-LIMBURG/BEE, NL) observed 0125 UTC 23 January 2019
Temperature: -2.0°C (28°F)
Dewpoint: -4.0°C (25°F) [RH = 86%]
Pressure (altimeter): 29.47 inches Hg (998.0 mb)
Winds: from the SSE (160 degrees) at 9 MPH (8 knots; 4.1 m/s)
Visibility: 6 or more miles (10+ km)
Ceiling: at least 12,000 feet AGL
Clouds: scattered clouds at 2600 feet AGL
Weather: no significant weather observed at this time

METAR text: EHBK 230055Z AUTO 17010KT 9999 NSC M02/M04 Q0998
Conditions at: EHBK (ZUID-LIMBURG/BEE, NL) observed 0055 UTC 23 January 2019
Temperature: -2.0°C (28°F)
Dewpoint: -4.0°C (25°F) [RH = 86%]
Pressure (altimeter): 29.47 inches Hg (998.0 mb)
Winds: from the S (170 degrees) at 12 MPH (10 knots; 5.1 m/s)
Visibility: 6 or more miles (10+ km)
Ceiling: at least 12,000 feet AGL
Clouds: sky clear below 12,000 feet AGL
Weather: no significant weather observed at this time

METAR text: EHBK 230025Z AUTO 16008KT 9999 NCD M02/M04 Q0999
Conditions at: EHBK (ZUID-LIMBURG/BEE, NL) observed 0025 UTC 23 January 2019
Temperature: -2.0°C (28°F)
Dewpoint: -4.0°C (25°F) [RH = 86%]
Pressure (altimeter): 29.50 inches Hg (999.0 mb)
Winds: from the SSE (160 degrees) at 9 MPH (8 knots; 4.1 m/s)
Visibility: 6 or more miles (10+ km)
Ceiling: at least 12,000 feet AGL
Clouds: sky clear below 12,000 feet AGL
Weather: no significant weather observed at this time

METAR text: EHBK 222355Z AUTO 16008KT 9999 NCD M02/M04 Q0999 R03/851593
Conditions at: EHBK (ZUID-LIMBURG/BEE, NL) observed 2355 UTC 22 January 2019
Temperature: -2.0°C (28°F)
Dewpoint: -4.0°C (25°F) [RH = 86%]
Pressure (altimeter): 29.50 inches Hg (999.0 mb)
Winds: from the SSE (160 degrees) at 9 MPH (8 knots; 4.1 m/s)
Visibility: 6 or more miles (10+ km)
Ceiling: at least 12,000 feet AGL
Clouds: sky clear below 12,000 feet AGL
Weather: no significant weather observed at this time

METAR text: EHBK 222325Z AUTO 16008KT 9999 FEW015 M02/M04 Q0999 R03/851593
Conditions at: EHBK (ZUID-LIMBURG/BEE, NL) observed 2325 UTC 22 January 2019
Temperature: -2.0°C (28°F)
Dewpoint: -4.0°C (25°F) [RH = 86%]
Pressure (altimeter): 29.50 inches Hg (999.0 mb)
Winds: from the SSE (160 degrees) at 9 MPH (8 knots; 4.1 m/s)
Visibility: 6 or more miles (10+ km)
Ceiling: at least 12,000 feet AGL
Clouds: few clouds at 1500 feet AGL
Weather: no significant weather observed at this time

METAR text: EHBK 222255Z AUTO 18008KT 9999 BKN015 OVC023 M01/M04 Q1000 R03/851593
Conditions at: EHBK (ZUID-LIMBURG/BEE, NL) observed 2255 UTC 22 January 2019
Temperature: -1.0°C (30°F)
Dewpoint: -4.0°C (25°F) [RH = 80%]
Pressure (altimeter): 29.53 inches Hg (1000.0 mb)
Winds: from the S (180 degrees) at 9 MPH (8 knots; 4.1 m/s)
Visibility: 6 or more miles (10+ km)
Ceiling: 1500 feet AGL
Clouds: broken clouds at 1500 feet AGL
overcast cloud deck at 2300 feet AGL
Weather: no significant weather observed at this time

METAR text: EHBK 222225Z AUTO 17007KT 9999 BKN016 OVC019 M01/M04 Q1000 R03/851593
Conditions at: EHBK (ZUID-LIMBURG/BEE, NL) observed 2225 UTC 22 January 2019
Temperature: -1.0°C (30°F)
Dewpoint: -4.0°C (25°F) [RH = 80%]
Pressure (altimeter): 29.53 inches Hg (1000.0 mb)
Winds: from the S (170 degrees) at 8 MPH (7 knots; 3.6 m/s)
Visibility: 6 or more miles (10+ km)
Ceiling: 1600 feet AGL
Clouds: broken clouds at 1600 feet AGL
overcast cloud deck at 1900 feet AGL
Weather: no significant weather observed at this time

METAR text: EHBK 222155Z AUTO 18007KT 150V210 9999 OVC014 M01/M04 Q1000 R03/851593 TEMPO BKN016
Conditions at: EHBK (ZUID-LIMBURG/BEE, NL) observed 2155 UTC 22 January 2019
Temperature: -1.0°C (30°F)
Dewpoint: -4.0°C (25°F) [RH = 80%]
Pressure (altimeter): 29.53 inches Hg (1000.0 mb)
Winds: from the S (180 degrees) at 8 MPH (7 knots; 3.6 m/s)
Visibility: 6 or more miles (10+ km)
Ceiling: 1400 feet AGL
Clouds: overcast cloud deck at 1400 feet AGL
Weather: no significant weather observed at this time

METAR text: EHBK 222125Z AUTO 18006KT 9999 OVC015 M01/M04 Q1000 R03/851593 TEMPO BKN014
Conditions at: EHBK (ZUID-LIMBURG/BEE, NL) observed 2125 UTC 22 January 2019
Temperature: -1.0°C (30°F)
Dewpoint: -4.0°C (25°F) [RH = 80%]
Pressure (altimeter): 29.53 inches Hg (1000.0 mb)
Winds: from the S (180 degrees) at 7 MPH (6 knots; 3.1 m/s)
Visibility: 6 or more miles (10+ km)
Ceiling: 1500 feet AGL
Clouds: overcast cloud deck at 1500 feet AGL
Weather: no significant weather observed at this time

METAR text: EHBK 222055Z AUTO 18007KT 9999 OVC015 M01/M04 Q1000 R03/851593 TEMPO BKN014
Conditions at: EHBK (ZUID-LIMBURG/BEE, NL) observed 2055 UTC 22 January 2019
Temperature: -1.0°C (30°F)
Dewpoint: -4.0°C (25°F) [RH = 80%]
Pressure (altimeter): 29.53 inches Hg (1000.0 mb)
Winds: from the S (180 degrees) at 8 MPH (7 knots; 3.6 m/s)
Visibility: 6 or more miles (10+ km)
Ceiling: 1500 feet AGL
Clouds: overcast cloud deck at 1500 feet AGL
Weather: no significant weather observed at this time

METAR text: EHBK 222025Z AUTO 19007KT 9999 SCT014 OVC017 M01/M04 Q1001 R03/851593 TEMPO BKN014
Conditions at: EHBK (ZUID-LIMBURG/BEE, NL) observed 2025 UTC 22 January 2019
Temperature: -1.0°C (30°F)
Dewpoint: -4.0°C (25°F) [RH = 80%]
Pressure (altimeter): 29.56 inches Hg (1001.0 mb)
Winds: from the S (190 degrees) at 8 MPH (7 knots; 3.6 m/s)
Visibility: 6 or more miles (10+ km)
Ceiling: 1700 feet AGL
Clouds: scattered clouds at 1400 feet AGL
overcast cloud deck at 1700 feet AGL
Weather: no significant weather observed at this time

METAR text: EHBK 221955Z AUTO 20009KT 9999 OVC016 M01/M03 Q1001 R03/851593 TEMPO BKN014
Conditions at: EHBK (ZUID-LIMBURG/BEE, NL) observed 1955 UTC 22 January 2019
Temperature: -1.0°C (30°F)
Dewpoint: -3.0°C (27°F) [RH = 86%]
Pressure (altimeter): 29.56 inches Hg (1001.0 mb)
Winds: from the SSW (200 degrees) at 10 MPH (9 knots; 4.6 m/s)
Visibility: 6 or more miles (10+ km)
Ceiling: 1600 feet AGL
Clouds: overcast cloud deck at 1600 feet AGL
Weather: no significant weather observed at this time

METAR text: EHBK 221925Z AUTO 20011KT 9000 OVC016 M02/M04 Q1001 R03/851593 TEMPO BKN014
Conditions at: EHBK (ZUID-LIMBURG/BEE, NL) observed 1925 UTC 22 January 2019
Temperature: -2.0°C (28°F)
Dewpoint: -4.0°C (25°F) [RH = 86%]
Pressure (altimeter): 29.56 inches Hg (1001.0 mb)
Winds: from the SSW (200 degrees) at 13 MPH (11 knots; 5.7 m/s)
Visibility: 6 miles ( 9 km)
Ceiling: 1600 feet AGL
Clouds: overcast cloud deck at 1600 feet AGL
Weather: no significant weather observed at this time

METAR text: EHBK 221855Z AUTO 20012KT 8000 OVC015 M02/M03 Q1001 R03/851593 BECMG 9000 TEMPO BKN012
Conditions at: EHBK (ZUID-LIMBURG/BEE, NL) observed 1855 UTC 22 January 2019
Temperature: -2.0°C (28°F)
Dewpoint: -3.0°C (27°F) [RH = 93%]
Pressure (altimeter): 29.56 inches Hg (1001.0 mb)
Winds: from the SSW (200 degrees) at 14 MPH (12 knots; 6.2 m/s)
Visibility: 5 miles ( 8 km)
Ceiling: 1500 feet AGL
Clouds: overcast cloud deck at 1500 feet AGL
Weather: no significant weather observed at this time

METAR text: EHBK 221825Z AUTO 20011KT 4300 -SG FEW002 OVC016 M02/M03 Q1002 R03/851593 BECMG 9000 NSW TEMPO BKN012
Conditions at: EHBK (ZUID-LIMBURG/BEE, NL) observed 1825 UTC 22 January 2019
Temperature: -2.0°C (28°F)
Dewpoint: -3.0°C (27°F) [RH = 93%]
Pressure (altimeter): 29.59 inches Hg (1002.0 mb)
Winds: from the SSW (200 degrees) at 13 MPH (11 knots; 5.7 m/s)
Visibility: 2.67 miles (4.30 km)
Ceiling: 1600 feet AGL
Clouds: few clouds at 200 feet AGL
overcast cloud deck at 1600 feet AGL
Weather: -SG  (light snow grains)

METAR text: EHBK 221755Z AUTO 20012KT 2200 -SN FEW004 OVC017 M02/M03 Q1002 R03/851593 BECMG 8000 NSW TEMPO BKN008
Conditions at: EHBK (ZUID-LIMBURG/BEE, NL) observed 1755 UTC 22 January 2019
Temperature: -2.0°C (28°F)
Dewpoint: -3.0°C (27°F) [RH = 93%]
Pressure (altimeter): 29.59 inches Hg (1002.0 mb)
Winds: from the SSW (200 degrees) at 14 MPH (12 knots; 6.2 m/s)
Visibility: 1.37 miles (2.20 km)
Ceiling: 1700 feet AGL
Clouds: few clouds at 400 feet AGL
overcast cloud deck at 1700 feet AGL
Weather: -SN  (light snow)

METAR text: EHBK 221725Z AUTO 20014KT 2000 -SN FEW005 BKN016 OVC021 M02/M03 Q1002 R03/851593 BECMG 6000 NSW TEMPO BKN008
Conditions at: EHBK (ZUID-LIMBURG/BEE, NL) observed 1725 UTC 22 January 2019
Temperature: -2.0°C (28°F)
Dewpoint: -3.0°C (27°F) [RH = 93%]
Pressure (altimeter): 29.59 inches Hg (1002.0 mb)
Winds: from the SSW (200 degrees) at 16 MPH (14 knots; 7.2 m/s)
Visibility: 1.24 miles (2.00 km)
Ceiling: 1600 feet AGL
Clouds: few clouds at 500 feet AGL
broken clouds at 1600 feet AGL
overcast cloud deck at 2100 feet AGL
Weather: -SN  (light snow)

METAR text: EHBK 221655Z AUTO 20013KT 1700 -SN FEW004 BKN006 BKN009 M02/M03 Q1002 R03/851593 BECMG 5000 -SG BKN018 TEMPO 1200 SN
Conditions at: EHBK (ZUID-LIMBURG/BEE, NL) observed 1655 UTC 22 January 2019
Temperature: -2.0°C (28°F)
Dewpoint: -3.0°C (27°F) [RH = 93%]
Pressure (altimeter): 29.59 inches Hg (1002.0 mb)
Winds: from the SSW (200 degrees) at 15 MPH (13 knots; 6.7 m/s)
Visibility: 1.06 miles (1.71 km)
Ceiling: 600 feet AGL
Clouds: few clouds at 400 feet AGL
broken clouds at 600 feet AGL
broken clouds at 900 feet AGL
Weather: -SN  (light snow)

METAR text: EHBK 221625Z AUTO 20011KT 1900 -SN FEW004/// SCT008/// BKN014/// M02/M03 Q1002 R03/891593 TEMPO 1200 BKN008
Conditions at: EHBK (ZUID-LIMBURG/BEE, NL) observed 1625 UTC 22 January 2019
Temperature: -2.0°C (28°F)
Dewpoint: -3.0°C (27°F) [RH = 93%]
Pressure (altimeter): 29.59 inches Hg (1002.0 mb)
Winds: from the SSW (200 degrees) at 13 MPH (11 knots; 5.7 m/s)
Visibility: 1.18 miles (1.90 km)
Ceiling: 1400 feet AGL
Clouds: few clouds at 400 feet AGL
scattered clouds at 800 feet AGL
broken clouds at 1400 feet AGL
Weather: -SN  (light snow)

METAR text: EHBK 221555Z AUTO 19011KT 2300 -FZUP -SN FEW004 SCT006 BKN009 M02/M03 Q1002 R03/891593 TEMPO 1200
Conditions at: EHBK (ZUID-LIMBURG/BEE, NL) observed 1555 UTC 22 January 2019
Temperature: -2.0°C (28°F)
Dewpoint: -3.0°C (27°F) [RH = 93%]
Pressure (altimeter): 29.59 inches Hg (1002.0 mb)
Winds: from the S (190 degrees) at 13 MPH (11 knots; 5.7 m/s)
Visibility: 1.43 miles (2.30 km)
Ceiling: 900 feet AGL
Clouds: few clouds at 400 feet AGL
scattered clouds at 600 feet AGL
broken clouds at 900 feet AGL
Weather: -SN UP  (light snow, unknown precipitation)

METAR text: EHBK 221525Z AUTO 19010KT 1900 -SN FEW004 SCT006 BKN007 M02/M03 Q1003 R03/491593 TEMPO 1200
Conditions at: EHBK (ZUID-LIMBURG/BEE, NL) observed 1525 UTC 22 January 2019
Temperature: -2.0°C (28°F)
Dewpoint: -3.0°C (27°F) [RH = 93%]
Pressure (altimeter): 29.62 inches Hg (1003.0 mb)
Winds: from the S (190 degrees) at 12 MPH (10 knots; 5.1 m/s)
Visibility: 1.18 miles (1.90 km)
Ceiling: 700 feet AGL
Clouds: few clouds at 400 feet AGL
scattered clouds at 600 feet AGL
broken clouds at 700 feet AGL
Weather: -SN  (light snow)

METAR text: EHBK 221455Z AUTO 19010KT 1700 -SN FEW004 SCT005 BKN006 M02/M03 Q1003 R03/491593 TEMPO 1200 SN
Conditions at: EHBK (ZUID-LIMBURG/BEE, NL) observed 1455 UTC 22 January 2019
Temperature: -2.0°C (28°F)
Dewpoint: -3.0°C (27°F) [RH = 93%]
Pressure (altimeter): 29.62 inches Hg (1003.0 mb)
Winds: from the S (190 degrees) at 12 MPH (10 knots; 5.1 m/s)
Visibility: 1.06 miles (1.71 km)
Ceiling: 600 feet AGL
Clouds: few clouds at 400 feet AGL
scattered clouds at 500 feet AGL
broken clouds at 600 feet AGL
Weather: -SN  (light snow)

METAR text: EHBK 221425Z AUTO 19013KT 1400 R21/1500N -SN FEW005 BKN007 BKN008 M02/M03 Q1003 TEMPO 1800
Conditions at: EHBK (ZUID-LIMBURG/BEE, NL) observed 1425 UTC 22 January 2019
Temperature: -2.0°C (28°F)
Dewpoint: -3.0°C (27°F) [RH = 93%]
Pressure (altimeter): 29.62 inches Hg (1003.0 mb)
Winds: from the S (190 degrees) at 15 MPH (13 knots; 6.7 m/s)
Visibility: 0.87 miles (1.40 km)
Ceiling: 700 feet AGL
Clouds: few clouds at 500 feet AGL
broken clouds at 700 feet AGL
broken clouds at 800 feet AGL
Weather: -SN  (light snow)

METAR text: EHBK 221355Z AUTO 19012KT 160V230 1200 R21/1700N -SN FEW005 BKN006 OVC008 M02/M03 Q1004 TEMPO 1200 SN
Conditions at: EHBK (ZUID-LIMBURG/BEE, NL) observed 1355 UTC 22 January 2019
Temperature: -2.0°C (28°F)
Dewpoint: -3.0°C (27°F) [RH = 93%]
Pressure (altimeter): 29.65 inches Hg (1004.0 mb)
Winds: from the S (190 degrees) at 14 MPH (12 knots; 6.2 m/s)
Visibility: 0.75 miles (1.21 km)
Ceiling: 600 feet AGL
Clouds: few clouds at 500 feet AGL
broken clouds at 600 feet AGL
overcast cloud deck at 800 feet AGL
Weather: -SN  (light snow)

METAR text: EHBK 221325Z AUTO 19014KT 160V220 1800 -SN FEW010 OVC012 M02/M04 Q1004 TEMPO 1200 SN BKN008
Conditions at: EHBK (ZUID-LIMBURG/BEE, NL) observed 1325 UTC 22 January 2019
Temperature: -2.0°C (28°F)
Dewpoint: -4.0°C (25°F) [RH = 86%]
Pressure (altimeter): 29.65 inches Hg (1004.0 mb)
Winds: from the S (190 degrees) at 16 MPH (14 knots; 7.2 m/s)
Visibility: 1.12 miles (1.80 km)
Ceiling: 1200 feet AGL
Clouds: few clouds at 1000 feet AGL
overcast cloud deck at 1200 feet AGL
Weather: -SN  (light snow)

METAR text: EHBK 221255Z AUTO 20016KT 170V230 3400 -SG BKN019 OVC023 M02/M05 Q1004 TEMPO 2500 -SN BKN012
Conditions at: EHBK (ZUID-LIMBURG/BEE, NL) observed 1255 UTC 22 January 2019
Temperature: -2.0°C (28°F)
Dewpoint: -5.0°C (23°F) [RH = 80%]
Pressure (altimeter): 29.65 inches Hg (1004.0 mb)
Winds: from the SSW (200 degrees) at 18 MPH (16 knots; 8.2 m/s)
Visibility: 2.11 miles (3.40 km)
Ceiling: 1900 feet AGL
Clouds: broken clouds at 1900 feet AGL
overcast cloud deck at 2300 feet AGL
Weather: -SG  (light snow grains)

METAR text: EHBK 221225Z AUTO 20015KT 9999 BKN021 OVC025 M01/M07 Q1005 BECMG 4000 -SN
Conditions at: EHBK (ZUID-LIMBURG/BEE, NL) observed 1225 UTC 22 January 2019
Temperature: -1.0°C (30°F)
Dewpoint: -7.0°C (19°F) [RH = 64%]
Pressure (altimeter): 29.68 inches Hg (1005.0 mb)
Winds: from the SSW (200 degrees) at 17 MPH (15 knots; 7.7 m/s)
Visibility: 6 or more miles (10+ km)
Ceiling: 2100 feet AGL
Clouds: broken clouds at 2100 feet AGL
overcast cloud deck at 2500 feet AGL
Weather: no significant weather observed at this time

METAR text: EHBK 221155Z AUTO 20016KT 170V230 9999 OVC020 M01/M07 Q1005 BECMG 4000 -SN
Conditions at: EHBK (ZUID-LIMBURG/BEE, NL) observed 1155 UTC 22 January 2019
Temperature: -1.0°C (30°F)
Dewpoint: -7.0°C (19°F) [RH = 64%]
Pressure (altimeter): 29.68 inches Hg (1005.0 mb)
Winds: from the SSW (200 degrees) at 18 MPH (16 knots; 8.2 m/s)
Visibility: 6 or more miles (10+ km)
Ceiling: 2000 feet AGL
Clouds: overcast cloud deck at 2000 feet AGL
Weather: no significant weather observed at this time

METAR text: EHBK 221125Z AUTO 19017KT 170V230 9999 NSC M01/M07 Q1005 NOSIG
Conditions at: EHBK (ZUID-LIMBURG/BEE, NL) observed 1125 UTC 22 January 2019
Temperature: -1.0°C (30°F)
Dewpoint: -7.0°C (19°F) [RH = 64%]
Pressure (altimeter): 29.68 inches Hg (1005.0 mb)
Winds: from the S (190 degrees) at 20 MPH (17 knots; 8.7 m/s)
Visibility: 6 or more miles (10+ km)
Ceiling: at least 12,000 feet AGL
Clouds: sky clear below 12,000 feet AGL
Weather: no significant weather observed at this time

METAR text: EHBK 221055Z AUTO 20013KT 170V230 9999 NSC M01/M07 Q1006 NOSIG
Conditions at: EHBK (ZUID-LIMBURG/BEE, NL) observed 1055 UTC 22 January 2019
Temperature: -1.0°C (30°F)
Dewpoint: -7.0°C (19°F) [RH = 64%]
Pressure (altimeter): 29.70 inches Hg (1006.0 mb)
Winds: from the SSW (200 degrees) at 15 MPH (13 knots; 6.7 m/s)
Visibility: 6 or more miles (10+ km)
Ceiling: at least 12,000 feet AGL
Clouds: sky clear below 12,000 feet AGL
Weather: no significant weather observed at this time

METAR text: EHBK 221025Z AUTO 20015KT 9999 NSC M01/M07 Q1006 NOSIG
Conditions at: EHBK (ZUID-LIMBURG/BEE, NL) observed 1025 UTC 22 January 2019
Temperature: -1.0°C (30°F)
Dewpoint: -7.0°C (19°F) [RH = 64%]
Pressure (altimeter): 29.70 inches Hg (1006.0 mb)
Winds: from the SSW (200 degrees) at 17 MPH (15 knots; 7.7 m/s)
Visibility: 6 or more miles (10+ km)
Ceiling: at least 12,000 feet AGL
Clouds: sky clear below 12,000 feet AGL
Weather: no significant weather observed at this time

METAR text: EHBK 220955Z AUTO 20014KT 9999 NSC M02/M08 Q1006 NOSIG
Conditions at: EHBK (ZUID-LIMBURG/BEE, NL) observed 0955 UTC 22 January 2019
Temperature: -2.0°C (28°F)
Dewpoint: -8.0°C (18°F) [RH = 63%]
Pressure (altimeter): 29.70 inches Hg (1006.0 mb)
Winds: from the SSW (200 degrees) at 16 MPH (14 knots; 7.2 m/s)
Visibility: 6 or more miles (10+ km)
Ceiling: at least 12,000 feet AGL
Clouds: sky clear below 12,000 feet AGL
Weather: no significant weather observed at this time

METAR text: EHBK 220925Z AUTO 20016KT 170V230 9999 NSC M02/M07 Q1007 NOSIG
Conditions at: EHBK (ZUID-LIMBURG/BEE, NL) observed 0925 UTC 22 January 2019
Temperature: -2.0°C (28°F)
Dewpoint: -7.0°C (19°F) [RH = 69%]
Pressure (altimeter): 29.73 inches Hg (1007.0 mb)
Winds: from the SSW (200 degrees) at 18 MPH (16 knots; 8.2 m/s)
Visibility: 6 or more miles (10+ km)
Ceiling: at least 12,000 feet AGL
Clouds: sky clear below 12,000 feet AGL
Weather: no significant weather observed at this time

METAR text: EHBK 220855Z AUTO 19015KT 9999 NSC M02/M07 Q1007 NOSIG
Conditions at: EHBK (ZUID-LIMBURG/BEE, NL) observed 0855 UTC 22 January 2019
Temperature: -2.0°C (28°F)
Dewpoint: -7.0°C (19°F) [RH = 69%]
Pressure (altimeter): 29.73 inches Hg (1007.0 mb)
Winds: from the S (190 degrees) at 17 MPH (15 knots; 7.7 m/s)
Visibility: 6 or more miles (10+ km)
Ceiling: at least 12,000 feet AGL
Clouds: sky clear below 12,000 feet AGL
Weather: no significant weather observed at this time

METAR text: EHBK 220825Z AUTO 19013KT 9999 NSC M02/M08 Q1008 NOSIG
Conditions at: EHBK (ZUID-LIMBURG/BEE, NL) observed 0825 UTC 22 January 2019
Temperature: -2.0°C (28°F)
Dewpoint: -8.0°C (18°F) [RH = 63%]
Pressure (altimeter): 29.76 inches Hg (1008.0 mb)
Winds: from the S (190 degrees) at 15 MPH (13 knots; 6.7 m/s)
Visibility: 6 or more miles (10+ km)
Ceiling: at least 12,000 feet AGL
Clouds: sky clear below 12,000 feet AGL
Weather: no significant weather observed at this time

METAR text: EHBK 220755Z AUTO 19011KT 9999 NSC M03/M07 Q1008 NOSIG
Conditions at: EHBK (ZUID-LIMBURG/BEE, NL) observed 0755 UTC 22 January 2019
Temperature: -3.0°C (27°F)
Dewpoint: -7.0°C (19°F) [RH = 74%]
Pressure (altimeter): 29.76 inches Hg (1008.0 mb)
Winds: from the S (190 degrees) at 13 MPH (11 knots; 5.7 m/s)
Visibility: 6 or more miles (10+ km)
Ceiling: at least 12,000 feet AGL
Clouds: sky clear below 12,000 feet AGL
Weather: no significant weather observed at this time

METAR text: EHBK 220725Z AUTO 21007KT 9999 NSC M04/M08 Q1009 NOSIG
Conditions at: EHBK (ZUID-LIMBURG/BEE, NL) observed 0725 UTC 22 January 2019
Temperature: -4.0°C (25°F)
Dewpoint: -8.0°C (18°F) [RH = 74%]
Pressure (altimeter): 29.79 inches Hg (1009.0 mb)
Winds: from the SSW (210 degrees) at 8 MPH (7 knots; 3.6 m/s)
Visibility: 6 or more miles (10+ km)
Ceiling: at least 12,000 feet AGL
Clouds: sky clear below 12,000 feet AGL
Weather: no significant weather observed at this time

METAR text: EHBK 220655Z AUTO 19008KT 9999 NSC M04/M08 Q1009 NOSIG
Conditions at: EHBK (ZUID-LIMBURG/BEE, NL) observed 0655 UTC 22 January 2019
Temperature: -4.0°C (25°F)
Dewpoint: -8.0°C (18°F) [RH = 74%]
Pressure (altimeter): 29.79 inches Hg (1009.0 mb)
Winds: from the S (190 degrees) at 9 MPH (8 knots; 4.1 m/s)
Visibility: 6 or more miles (10+ km)
Ceiling: at least 12,000 feet AGL
Clouds: sky clear below 12,000 feet AGL
Weather: no significant weather observed at this time

METAR text: EHBK 220625Z AUTO 18009KT 120V210 9999 NSC M04/M08 Q1009 NOSIG
Conditions at: EHBK (ZUID-LIMBURG/BEE, NL) observed 0625 UTC 22 January 2019
Temperature: -4.0°C (25°F)
Dewpoint: -8.0°C (18°F) [RH = 74%]
Pressure (altimeter): 29.79 inches Hg (1009.0 mb)
Winds: from the S (180 degrees) at 10 MPH (9 knots; 4.6 m/s)
Visibility: 6 or more miles (10+ km)
Ceiling: at least 12,000 feet AGL
Clouds: sky clear below 12,000 feet AGL
Weather: no significant weather observed at this time

METAR text: EHBK 220555Z AUTO 19008KT 9999 NSC M05/M08 Q1010 NOSIG
Conditions at: EHBK (ZUID-LIMBURG/BEE, NL) observed 0555 UTC 22 January 2019
Temperature: -5.0°C (23°F)
Dewpoint: -8.0°C (18°F) [RH = 79%]
Pressure (altimeter): 29.82 inches Hg (1010.0 mb)
Winds: from the S (190 degrees) at 9 MPH (8 knots; 4.1 m/s)
Visibility: 6 or more miles (10+ km)
Ceiling: at least 12,000 feet AGL
Clouds: sky clear below 12,000 feet AGL
Weather: no significant weather observed at this time

METAR text: EHBK 220525Z AUTO 19008KT 9999 NSC M05/M08 Q1010 NOSIG
Conditions at: EHBK (ZUID-LIMBURG/BEE, NL) observed 0525 UTC 22 January 2019
Temperature: -5.0°C (23°F)
Dewpoint: -8.0°C (18°F) [RH = 79%]
Pressure (altimeter): 29.82 inches Hg (1010.0 mb)
Winds: from the S (190 degrees) at 9 MPH (8 knots; 4.1 m/s)
Visibility: 6 or more miles (10+ km)
Ceiling: at least 12,000 feet AGL
Clouds: sky clear below 12,000 feet AGL
Weather: no significant weather observed at this time

METAR text: EHBK 220455Z AUTO 20007KT 9999 NSC M05/M08 Q1011
Conditions at: EHBK (ZUID-LIMBURG/BEE, NL) observed 0455 UTC 22 January 2019
Temperature: -5.0°C (23°F)
Dewpoint: -8.0°C (18°F) [RH = 79%]
Pressure (altimeter): 29.85 inches Hg (1011.0 mb)
Winds: from the SSW (200 degrees) at 8 MPH (7 knots; 3.6 m/s)
Visibility: 6 or more miles (10+ km)
Ceiling: at least 12,000 feet AGL
Clouds: sky clear below 12,000 feet AGL
Weather: no significant weather observed at this time

METAR text: EHBK 220425Z AUTO 19007KT 9999 NSC M05/M08 Q1011
Conditions at: EHBK (ZUID-LIMBURG/BEE, NL) observed 0425 UTC 22 January 2019
Temperature: -5.0°C (23°F)
Dewpoint: -8.0°C (18°F) [RH = 79%]
Pressure (altimeter): 29.85 inches Hg (1011.0 mb)
Winds: from the S (190 degrees) at 8 MPH (7 knots; 3.6 m/s)
Visibility: 6 or more miles (10+ km)
Ceiling: at least 12,000 feet AGL
Clouds: sky clear below 12,000 feet AGL
Weather: no significant weather observed at this time

METAR text: EHBK 220355Z AUTO 21006KT 9999 NSC M06/M08 Q1012
Conditions at: EHBK (ZUID-LIMBURG/BEE, NL) observed 0355 UTC 22 January 2019
Temperature: -6.0°C (21°F)
Dewpoint: -8.0°C (18°F) [RH = 86%]
Pressure (altimeter): 29.88 inches Hg (1012.0 mb)
Winds: from the SSW (210 degrees) at 7 MPH (6 knots; 3.1 m/s)
Visibility: 6 or more miles (10+ km)
Ceiling: at least 12,000 feet AGL
Clouds: sky clear below 12,000 feet AGL
Weather: no significant weather observed at this time

METAR text: EHBK 220325Z AUTO 19008KT 9999 NSC M05/M08 Q1012
Conditions at: EHBK (ZUID-LIMBURG/BEE, NL) observed 0325 UTC 22 January 2019
Temperature: -5.0°C (23°F)
Dewpoint: -8.0°C (18°F) [RH = 79%]
Pressure (altimeter): 29.88 inches Hg (1012.0 mb)
Winds: from the S (190 degrees) at 9 MPH (8 knots; 4.1 m/s)
Visibility: 6 or more miles (10+ km)
Ceiling: at least 12,000 feet AGL
Clouds: sky clear below 12,000 feet AGL
Weather: no significant weather observed at this time

Forecast for: EHBK (ZUID-LIMBURG/BEE, NL)
Text: TAF EHBK 231111Z 2312/2418 06006KT 8000 BKN030
Forecast period: 1200 to 1700 UTC 23 January 2019
Forecast type: FROM: standard forecast or significant change
Winds: from the ENE (60 degrees) at 7 MPH (6 knots; 3.1 m/s)
Visibility: 5 miles (8 km)
Ceiling: 3000 feet AGL
Clouds: broken clouds at 3000 feet AGL
Weather: no significant weather forecast for this period
Text: PROB30
Forecast period: 1200 to 1700 UTC 23 January 2019
Forecast type: TEMPORARY: The following changes expected for less than half the time period
Visibility: 4 miles (7 km)
Ceiling: 1000 feet AGL
Clouds: broken clouds at 1000 feet AGL
Weather: no significant weather forecast for this period
Text: TEMPO 2312/2317 7000 BKN010
Forecast period: 1700 to 2100 UTC 23 January 2019
Forecast type: BECOMING: Conditions expected to become as follows by 2000 UTC 23 January 2019
Winds: from the ENE (60 degrees) at 7 MPH (6 knots; 3.1 m/s)
Visibility: 2.49 miles (4.01 km)
Ceiling: 3000 feet AGL
Clouds: broken clouds at 3000 feet AGL
Weather: BR  (mist)
Text: BECMG 2317/2320 4000 BR
Forecast period: 2100 UTC 23 January 2019 to 0900 UTC 24 January 2019
Forecast type: BECOMING: Conditions expected to become as follows by 0000 UTC 24 January 2019
Winds: from the ENE (60 degrees) at 7 MPH (6 knots; 3.1 m/s)
Visibility: 0.75 miles (1.21 km)
Ceiling: 3000 feet AGL
Clouds: broken clouds at 3000 feet AGL
Weather: BCFG  (patches of fog)
Text: BECMG 2321/2324 1200 BCFG
Forecast period: 2200 UTC 23 January 2019 to 1000 UTC 24 January 2019
Forecast type: PROBABLE: 30 percent likelihood of the following during this time
Visibility: 0.25 miles (0.40 km)
Ceiling: indefinite ceiling with vertical visibility of 0 feet AGL
Clouds: obscured sky
Weather: FZFG  (freezing fog)
Text: PROB30 2322/2410 0400 FZFG VV000
Forecast period: 0900 to 1800 UTC 24 January 2019
Forecast type: BECOMING: Conditions expected to become as follows by 1200 UTC 24 January 2019
Winds: from the ENE (60 degrees) at 7 MPH (6 knots; 3.1 m/s)
Visibility: 6 or more miles 10+ km)
Ceiling: 3000 feet AGL
Clouds: broken clouds at 3000 feet AGL
Weather: NSW  (no significant weather)